sensor_id;sensor_type;location;lat;lon;timestamp;pressure;altitude;pressure_sealevel;temperature;humidity
20003;BME280;10162;41.600;23.806;2023-12-20T00:01:09;95650.69;;;-0.94;100.00
20003;BME280;10162;41.600;23.806;2023-12-20T00:03:53;95588.56;;;-0.87;100.00
20003;BME280;10162;41.600;23.806;2023-12-20T00:10:07;95578.78;;;-1.16;100.00
20003;BME280;10162;41.600;23.806;2023-12-20T00:12:47;95627.91;;;-1.10;100.00
20003;BME280;10162;41.600;23.806;2023-12-20T00:15:22;95606.88;;;-1.26;100.00
20003;BME280;10162;41.600;23.806;2023-12-20T00:18:11;95608.75;;;-1.17;100.00
20003;BME280;10162;41.600;23.806;2023-12-20T00:20:40;95648.56;;;-1.00;100.00
20003;BME280;10162;41.600;23.806;2023-12-20T00:23:07;95632.53;;;-1.26;100.00
20003;BME280;10162;41.600;23.806;2023-12-20T00:32:44;95627.00;;;-1.56;100.00
20003;BME280;10162;41.600;23.806;2023-12-20T00:35:25;95578.19;;;-1.79;100.00
20003;BME280;10162;41.600;23.806;2023-12-20T00:37:57;95613.69;;;-1.38;100.00
20003;BME280;10162;41.600;23.806;2023-12-20T00:40:30;95615.31;;;-1.37;100.00
20003;BME280;10162;41.600;23.806;2023-12-20T00:43:24;95594.97;;;-1.75;100.00
20003;BME280;10162;41.600;23.806;2023-12-20T00:49:52;95613.81;;;-1.63;100.00
20003;BME280;10162;41.600;23.806;2023-12-20T00:52:53;95595.56;;;-1.47;100.00
20003;BME280;10162;41.600;23.806;2023-12-20T00:55:52;95607.53;;;-1.59;100.00
20003;BME280;10162;41.600;23.806;2023-12-20T00:58:18;95564.50;;;-1.90;100.00
20003;BME280;10162;41.600;23.806;2023-12-20T01:00:53;95594.16;;;-1.51;100.00
20003;BME280;10162;41.600;23.806;2023-12-20T01:03:29;95578.84;;;-1.64;100.00
20003;BME280;10162;41.600;23.806;2023-12-20T01:09:58;95593.00;;;-1.47;100.00
20003;BME280;10162;41.600;23.806;2023-12-20T01:12:27;95593.25;;;-1.74;100.00
20003;BME280;10162;41.600;23.806;2023-12-20T01:14:53;95588.75;;;-1.59;100.00
20003;BME280;10162;41.600;23.806;2023-12-20T01:24:17;95568.25;;;-1.59;100.00
20003;BME280;10162;41.600;23.806;2023-12-20T01:30:43;95528.22;;;-2.21;100.00
20003;BME280;10162;41.600;23.806;2023-12-20T01:33:09;95568.66;;;-1.77;100.00
20003;BME280;10162;41.600;23.806;2023-12-20T01:40:14;95567.28;;;-1.46;100.00
20003;BME280;10162;41.600;23.806;2023-12-20T01:43:22;95550.22;;;-1.58;100.00
20003;BME280;10162;41.600;23.806;2023-12-20T01:49:54;95531.59;;;-1.84;100.00
20003;BME280;10162;41.600;23.806;2023-12-20T01:55:29;95478.56;;;-2.18;100.00
20003;BME280;10162;41.600;23.806;2023-12-20T01:58:03;95521.75;;;-2.14;100.00
20003;BME280;10162;41.600;23.806;2023-12-20T02:00:30;95499.94;;;-2.43;100.00
20003;BME280;10162;41.600;23.806;2023-12-20T02:03:07;95484.06;;;-2.35;100.00
20003;BME280;10162;41.600;23.806;2023-12-20T02:06:08;95535.06;;;-2.09;100.00
20003;BME280;10162;41.600;23.806;2023-12-20T02:08:38;95474.19;;;-2.65;100.00
20003;BME280;10162;41.600;23.806;2023-12-20T02:11:13;95518.31;;;-2.25;100.00
20003;BME280;10162;41.600;23.806;2023-12-20T02:13:42;95522.09;;;-2.18;100.00
20003;BME280;10162;41.600;23.806;2023-12-20T02:16:33;95507.69;;;-2.32;100.00
20003;BME280;10162;41.600;23.806;2023-12-20T02:19:52;95487.31;;;-2.10;100.00
20003;BME280;10162;41.600;23.806;2023-12-20T02:22:25;95523.53;;;-1.90;100.00
20003;BME280;10162;41.600;23.806;2023-12-20T02:25:09;95515.50;;;-1.86;100.00
20003;BME280;10162;41.600;23.806;2023-12-20T02:27:50;95509.34;;;-2.43;100.00
20003;BME280;10162;41.600;23.806;2023-12-20T02:30:16;95489.94;;;-2.46;100.00
20003;BME280;10162;41.600;23.806;2023-12-20T02:32:48;95509.16;;;-1.93;100.00
20003;BME280;10162;41.600;23.806;2023-12-20T02:35:18;95523.13;;;-1.73;100.00
20003;BME280;10162;41.600;23.806;2023-12-20T02:37:49;95438.13;;;-2.50;100.00
20003;BME280;10162;41.600;23.806;2023-12-20T02:40:24;95473.53;;;-2.20;100.00
20003;BME280;10162;41.600;23.806;2023-12-20T02:42:59;95476.56;;;-2.38;100.00
20003;BME280;10162;41.600;23.806;2023-12-20T02:45:35;95491.38;;;-2.18;100.00
20003;BME280;10162;41.600;23.806;2023-12-20T02:48:53;95511.25;;;-1.98;100.00
20003;BME280;10162;41.600;23.806;2023-12-20T02:51:19;95461.59;;;-2.32;100.00
20003;BME280;10162;41.600;23.806;2023-12-20T02:53:45;95507.22;;;-1.89;100.00
20003;BME280;10162;41.600;23.806;2023-12-20T02:59:09;95470.28;;;-1.87;100.00
20003;BME280;10162;41.600;23.806;2023-12-20T03:01:42;95457.06;;;-1.70;100.00
20003;BME280;10162;41.600;23.806;2023-12-20T03:04:13;95470.22;;;-1.74;100.00
20003;BME280;10162;41.600;23.806;2023-12-20T03:07:03;95500.06;;;-1.73;100.00
20003;BME280;10162;41.600;23.806;2023-12-20T03:09:42;95463.38;;;-1.97;100.00
20003;BME280;10162;41.600;23.806;2023-12-20T03:12:18;95406.69;;;-2.28;100.00
20003;BME280;10162;41.600;23.806;2023-12-20T03:14:44;95450.69;;;-1.99;100.00
20003;BME280;10162;41.600;23.806;2023-12-20T03:17:12;95463.13;;;-1.71;100.00
20003;BME280;10162;41.600;23.806;2023-12-20T03:19:47;95441.41;;;-1.54;100.00
20003;BME280;10162;41.600;23.806;2023-12-20T03:22:29;95487.47;;;-1.19;100.00
20003;BME280;10162;41.600;23.806;2023-12-20T03:24:57;95500.78;;;-1.14;100.00
20003;BME280;10162;41.600;23.806;2023-12-20T03:27:41;95476.16;;;-1.39;100.00
20003;BME280;10162;41.600;23.806;2023-12-20T03:30:11;95476.81;;;-1.48;100.00
20003;BME280;10162;41.600;23.806;2023-12-20T03:32:40;95480.81;;;-1.44;100.00
20003;BME280;10162;41.600;23.806;2023-12-20T03:35:07;95449.56;;;-1.49;100.00
20003;BME280;10162;41.600;23.806;2023-12-20T03:37:59;95449.19;;;-1.67;100.00
20003;BME280;10162;41.600;23.806;2023-12-20T03:40:43;95462.88;;;-1.21;100.00
20003;BME280;10162;41.600;23.806;2023-12-20T03:43:13;95472.59;;;-1.03;100.00
20003;BME280;10162;41.600;23.806;2023-12-20T03:45:40;95447.03;;;-1.15;100.00
20003;BME280;10162;41.600;23.806;2023-12-20T03:48:07;95443.28;;;-1.22;100.00
20003;BME280;10162;41.600;23.806;2023-12-20T03:50:34;95423.66;;;-1.57;100.00
20003;BME280;10162;41.600;23.806;2023-12-20T03:53:03;95466.03;;;-1.29;100.00
20003;BME280;10162;41.600;23.806;2023-12-20T03:55:30;95425.78;;;-1.40;100.00
20003;BME280;10162;41.600;23.806;2023-12-20T03:57:56;95444.00;;;-1.20;100.00
20003;BME280;10162;41.600;23.806;2023-12-20T04:00:23;95459.63;;;-1.12;100.00
20003;BME280;10162;41.600;23.806;2023-12-20T04:02:49;95454.13;;;-1.19;100.00
20003;BME280;10162;41.600;23.806;2023-12-20T04:05:15;95460.69;;;-1.15;100.00
20003;BME280;10162;41.600;23.806;2023-12-20T04:08:21;95466.13;;;-1.19;100.00
20003;BME280;10162;41.600;23.806;2023-12-20T04:11:04;95440.25;;;-1.39;100.00
20003;BME280;10162;41.600;23.806;2023-12-20T04:13:36;95414.50;;;-1.48;100.00
20003;BME280;10162;41.600;23.806;2023-12-20T04:16:15;95462.78;;;-1.20;100.00
20003;BME280;10162;41.600;23.806;2023-12-20T04:18:42;95442.34;;;-1.33;100.00
20003;BME280;10162;41.600;23.806;2023-12-20T04:21:13;95419.25;;;-1.55;100.00
20003;BME280;10162;41.600;23.806;2023-12-20T04:23:39;95408.63;;;-1.61;100.00
20003;BME280;10162;41.600;23.806;2023-12-20T04:26:38;95442.69;;;-1.48;100.00
20003;BME280;10162;41.600;23.806;2023-12-20T04:29:09;95417.41;;;-1.88;100.00
20003;BME280;10162;41.600;23.806;2023-12-20T04:31:44;95408.59;;;-1.84;100.00
20003;BME280;10162;41.600;23.806;2023-12-20T04:34:39;95387.22;;;-2.06;100.00
20003;BME280;10162;41.600;23.806;2023-12-20T04:37:11;95424.13;;;-1.63;100.00
20003;BME280;10162;41.600;23.806;2023-12-20T04:39:47;95452.50;;;-1.31;100.00
20003;BME280;10162;41.600;23.806;2023-12-20T04:42:16;95452.38;;;-1.41;100.00
20003;BME280;10162;41.600;23.806;2023-12-20T04:44:42;95439.06;;;-1.46;100.00
20003;BME280;10162;41.600;23.806;2023-12-20T04:47:29;95449.59;;;-1.15;100.00
20003;BME280;10162;41.600;23.806;2023-12-20T04:49:58;95446.06;;;-1.48;100.00
20003;BME280;10162;41.600;23.806;2023-12-20T04:52:37;95394.84;;;-1.83;100.00
20003;BME280;10162;41.600;23.806;2023-12-20T04:55:07;95448.97;;;-1.41;100.00
20003;BME280;10162;41.600;23.806;2023-12-20T04:58:02;95433.84;;;-1.22;100.00
20003;BME280;10162;41.600;23.806;2023-12-20T05:00:32;95409.47;;;-1.39;100.00
20003;BME280;10162;41.600;23.806;2023-12-20T05:03:04;95406.66;;;-1.58;100.00
20003;BME280;10162;41.600;23.806;2023-12-20T05:05:43;95410.50;;;-1.52;100.00
20003;BME280;10162;41.600;23.806;2023-12-20T05:08:15;95429.81;;;-1.59;100.00
20003;BME280;10162;41.600;23.806;2023-12-20T05:10:41;95401.88;;;-1.62;100.00
20003;BME280;10162;41.600;23.806;2023-12-20T05:13:13;95430.22;;;-1.42;100.00
20003;BME280;10162;41.600;23.806;2023-12-20T05:19:15;95424.09;;;-2.09;100.00
20003;BME280;10162;41.600;23.806;2023-12-20T05:21:40;95425.69;;;-1.95;100.00
20003;BME280;10162;41.600;23.806;2023-12-20T05:24:18;95394.66;;;-2.03;100.00
20003;BME280;10162;41.600;23.806;2023-12-20T05:29:59;95420.09;;;-1.43;100.00
20003;BME280;10162;41.600;23.806;2023-12-20T05:32:26;95389.97;;;-1.75;100.00
20003;BME280;10162;41.600;23.806;2023-12-20T05:34:52;95421.75;;;-1.31;100.00
20003;BME280;10162;41.600;23.806;2023-12-20T05:37:34;95403.63;;;-1.41;100.00
20003;BME280;10162;41.600;23.806;2023-12-20T05:40:02;95375.88;;;-1.58;100.00
20003;BME280;10162;41.600;23.806;2023-12-20T05:42:34;95411.94;;;-1.26;100.00
20003;BME280;10162;41.600;23.806;2023-12-20T05:45:04;95392.72;;;-1.43;100.00
20003;BME280;10162;41.600;23.806;2023-12-20T05:50:22;95368.81;;;-1.10;100.00
20003;BME280;10162;41.600;23.806;2023-12-20T05:55:58;95388.19;;;-0.74;100.00
20003;BME280;10162;41.600;23.806;2023-12-20T05:58:25;95363.41;;;-0.96;100.00
20003;BME280;10162;41.600;23.806;2023-12-20T06:00:51;95355.28;;;-1.23;100.00
20003;BME280;10162;41.600;23.806;2023-12-20T06:03:18;95390.25;;;-1.00;100.00
20003;BME280;10162;41.600;23.806;2023-12-20T06:06:14;95404.09;;;-0.91;100.00
20003;BME280;10162;41.600;23.806;2023-12-20T06:08:41;95398.97;;;-0.91;100.00
20003;BME280;10162;41.600;23.806;2023-12-20T06:11:09;95383.13;;;-1.07;100.00
20003;BME280;10162;41.600;23.806;2023-12-20T06:13:35;95397.22;;;-1.02;100.00
20003;BME280;10162;41.600;23.806;2023-12-20T06:19:43;95400.63;;;-1.01;100.00
20003;BME280;10162;41.600;23.806;2023-12-20T06:22:10;95397.00;;;-1.10;100.00
20003;BME280;10162;41.600;23.806;2023-12-20T06:24:40;95395.38;;;-1.11;100.00
20003;BME280;10162;41.600;23.806;2023-12-20T06:27:21;95389.44;;;-1.11;100.00
20003;BME280;10162;41.600;23.806;2023-12-20T06:30:18;95385.81;;;-0.98;100.00
20003;BME280;10162;41.600;23.806;2023-12-20T06:32:44;95400.97;;;-1.06;100.00
20003;BME280;10162;41.600;23.806;2023-12-20T06:35:12;95400.88;;;-1.15;100.00
20003;BME280;10162;41.600;23.806;2023-12-20T06:37:51;95396.53;;;-0.93;100.00
20003;BME280;10162;41.600;23.806;2023-12-20T06:40:18;95373.59;;;-1.28;100.00
20003;BME280;10162;41.600;23.806;2023-12-20T06:42:48;95403.78;;;-1.09;100.00
20003;BME280;10162;41.600;23.806;2023-12-20T06:45:15;95402.97;;;-0.98;100.00
20003;BME280;10162;41.600;23.806;2023-12-20T06:48:07;95398.50;;;-0.96;100.00
20003;BME280;10162;41.600;23.806;2023-12-20T06:50:33;95395.25;;;-0.98;100.00
20003;BME280;10162;41.600;23.806;2023-12-20T06:53:02;95328.34;;;-1.40;100.00
20003;BME280;10162;41.600;23.806;2023-12-20T07:03:07;95359.53;;;-0.90;100.00
20003;BME280;10162;41.600;23.806;2023-12-20T07:08:30;95374.75;;;-0.55;100.00
20003;BME280;10162;41.600;23.806;2023-12-20T07:14:24;95374.81;;;-0.46;100.00
20003;BME280;10162;41.600;23.806;2023-12-20T07:21:14;95361.28;;;-0.36;100.00
20003;BME280;10162;41.600;23.806;2023-12-20T07:23:42;95355.84;;;-0.54;100.00
20003;BME280;10162;41.600;23.806;2023-12-20T07:26:37;95318.38;;;-0.57;100.00
20003;BME280;10162;41.600;23.806;2023-12-20T07:29:10;95341.97;;;-0.31;100.00
20003;BME280;10162;41.600;23.806;2023-12-20T07:31:51;95323.00;;;-0.19;100.00
20003;BME280;10162;41.600;23.806;2023-12-20T07:38:35;95315.88;;;0.06;100.00
20003;BME280;10162;41.600;23.806;2023-12-20T07:42:02;95313.25;;;0.17;100.00
20003;BME280;10162;41.600;23.806;2023-12-20T07:45:31;95354.06;;;0.10;100.00
20003;BME280;10162;41.600;23.806;2023-12-20T07:48:28;95327.47;;;0.21;100.00
20003;BME280;10162;41.600;23.806;2023-12-20T07:51:12;95304.25;;;0.32;100.00
20003;BME280;10162;41.600;23.806;2023-12-20T07:57:22;95308.00;;;0.58;100.00
20003;BME280;10162;41.600;23.806;2023-12-20T07:59:48;95312.50;;;0.66;100.00
20003;BME280;10162;41.600;23.806;2023-12-20T08:02:14;95318.66;;;0.44;100.00
20003;BME280;10162;41.600;23.806;2023-12-20T08:04:43;95334.63;;;0.78;100.00
20003;BME280;10162;41.600;23.806;2023-12-20T08:07:46;95327.63;;;0.90;100.00
20003;BME280;10162;41.600;23.806;2023-12-20T08:10:27;95331.84;;;1.00;100.00
20003;BME280;10162;41.600;23.806;2023-12-20T08:12:59;95290.25;;;0.95;100.00
20003;BME280;10162;41.600;23.806;2023-12-20T08:23:00;95314.59;;;1.79;100.00
20003;BME280;10162;41.600;23.806;2023-12-20T08:25:27;95268.88;;;1.33;100.00
20003;BME280;10162;41.600;23.806;2023-12-20T08:27:53;95299.66;;;1.92;100.00
20003;BME280;10162;41.600;23.806;2023-12-20T08:30:19;95301.88;;;2.24;100.00
20003;BME280;10162;41.600;23.806;2023-12-20T08:32:52;95319.25;;;2.78;100.00
20003;BME280;10162;41.600;23.806;2023-12-20T08:35:21;95266.44;;;2.63;100.00
20003;BME280;10162;41.600;23.806;2023-12-20T08:37:50;95273.06;;;2.75;100.00
20003;BME280;10162;41.600;23.806;2023-12-20T08:40:20;95284.69;;;2.52;100.00
20003;BME280;10162;41.600;23.806;2023-12-20T08:42:49;95283.16;;;2.32;100.00
20003;BME280;10162;41.600;23.806;2023-12-20T08:45:15;95269.50;;;2.02;100.00
20003;BME280;10162;41.600;23.806;2023-12-20T08:48:04;95289.84;;;2.15;100.00
20003;BME280;10162;41.600;23.806;2023-12-20T08:50:31;95274.84;;;2.28;100.00
20003;BME280;10162;41.600;23.806;2023-12-20T08:52:59;95243.56;;;1.48;100.00
20003;BME280;10162;41.600;23.806;2023-12-20T08:55:28;95259.78;;;1.48;100.00
20003;BME280;10162;41.600;23.806;2023-12-20T08:57:59;95240.28;;;1.17;100.00
20003;BME280;10162;41.600;23.806;2023-12-20T09:00:25;95257.50;;;1.45;100.00
20003;BME280;10162;41.600;23.806;2023-12-20T09:02:54;95242.84;;;1.75;100.00
20003;BME280;10162;41.600;23.806;2023-12-20T09:05:23;95235.09;;;1.75;100.00
20003;BME280;10162;41.600;23.806;2023-12-20T09:07:49;95227.53;;;1.63;100.00
20003;BME280;10162;41.600;23.806;2023-12-20T09:10:15;95212.19;;;1.81;100.00
20003;BME280;10162;41.600;23.806;2023-12-20T09:12:41;95227.31;;;1.94;100.00
20003;BME280;10162;41.600;23.806;2023-12-20T09:15:08;95204.84;;;1.77;100.00
20003;BME280;10162;41.600;23.806;2023-12-20T09:17:34;95201.22;;;1.70;100.00
20003;BME280;10162;41.600;23.806;2023-12-20T09:19:59;95204.50;;;2.08;100.00
20003;BME280;10162;41.600;23.806;2023-12-20T09:22:25;95210.69;;;2.53;100.00
20003;BME280;10162;41.600;23.806;2023-12-20T09:24:52;95211.44;;;2.90;100.00
20003;BME280;10162;41.600;23.806;2023-12-20T09:27:30;95194.69;;;3.12;100.00
20003;BME280;10162;41.600;23.806;2023-12-20T09:29:57;95190.97;;;2.97;100.00
20003;BME280;10162;41.600;23.806;2023-12-20T09:32:23;95175.06;;;3.01;100.00
20003;BME280;10162;41.600;23.806;2023-12-20T09:34:49;95161.19;;;2.84;100.00
20003;BME280;10162;41.600;23.806;2023-12-20T09:37:15;95173.50;;;3.26;100.00
20003;BME280;10162;41.600;23.806;2023-12-20T09:39:44;95184.59;;;3.62;100.00
20003;BME280;10162;41.600;23.806;2023-12-20T09:42:11;95155.00;;;3.82;100.00
20003;BME280;10162;41.600;23.806;2023-12-20T09:44:43;95137.88;;;3.81;100.00
20003;BME280;10162;41.600;23.806;2023-12-20T09:47:09;95135.09;;;3.74;100.00
20003;BME280;10162;41.600;23.806;2023-12-20T09:49:38;95123.59;;;4.03;100.00
20003;BME280;10162;41.600;23.806;2023-12-20T09:52:07;95097.78;;;4.19;100.00
20003;BME280;10162;41.600;23.806;2023-12-20T09:54:33;95127.91;;;4.28;100.00
20003;BME280;10162;41.600;23.806;2023-12-20T09:57:00;95123.19;;;4.82;100.00
20003;BME280;10162;41.600;23.806;2023-12-20T09:59:26;95100.56;;;5.16;100.00
20003;BME280;10162;41.600;23.806;2023-12-20T10:01:55;95106.06;;;5.21;100.00
20003;BME280;10162;41.600;23.806;2023-12-20T10:04:22;95082.91;;;5.04;100.00
20003;BME280;10162;41.600;23.806;2023-12-20T10:06:49;95069.78;;;4.89;100.00
20003;BME280;10162;41.600;23.806;2023-12-20T10:09:15;95063.63;;;4.82;100.00
20003;BME280;10162;41.600;23.806;2023-12-20T10:11:41;95084.50;;;4.96;100.00
20003;BME280;10162;41.600;23.806;2023-12-20T10:14:07;95065.38;;;5.30;100.00
20003;BME280;10162;41.600;23.806;2023-12-20T10:16:44;95064.50;;;5.70;100.00
20003;BME280;10162;41.600;23.806;2023-12-20T10:19:10;95047.13;;;5.87;100.00
20003;BME280;10162;41.600;23.806;2023-12-20T10:21:36;95067.44;;;6.22;100.00
20003;BME280;10162;41.600;23.806;2023-12-20T10:24:02;95027.66;;;5.82;100.00
20003;BME280;10162;41.600;23.806;2023-12-20T10:26:32;95032.53;;;5.94;100.00
20003;BME280;10162;41.600;23.806;2023-12-20T10:29:01;95026.50;;;6.01;100.00
20003;BME280;10162;41.600;23.806;2023-12-20T10:31:35;95023.31;;;6.22;100.00
20003;BME280;10162;41.600;23.806;2023-12-20T10:34:02;95002.03;;;5.96;100.00
20003;BME280;10162;41.600;23.806;2023-12-20T10:36:52;95021.63;;;6.83;100.00
20003;BME280;10162;41.600;23.806;2023-12-20T10:39:18;95004.31;;;7.13;100.00
20003;BME280;10162;41.600;23.806;2023-12-20T10:41:45;94993.47;;;7.09;100.00
20003;BME280;10162;41.600;23.806;2023-12-20T10:44:12;95009.13;;;7.38;100.00
20003;BME280;10162;41.600;23.806;2023-12-20T10:46:57;94998.06;;;7.36;100.00
20003;BME280;10162;41.600;23.806;2023-12-20T10:49:26;94971.88;;;7.09;100.00
20003;BME280;10162;41.600;23.806;2023-12-20T10:51:54;94984.25;;;7.21;100.00
20003;BME280;10162;41.600;23.806;2023-12-20T10:54:20;94970.00;;;7.46;100.00
20003;BME280;10162;41.600;23.806;2023-12-20T10:59:44;94969.75;;;7.71;100.00
20003;BME280;10162;41.600;23.806;2023-12-20T11:02:12;94967.84;;;7.35;100.00
20003;BME280;10162;41.600;23.806;2023-12-20T11:04:52;94959.78;;;7.16;100.00
20003;BME280;10162;41.600;23.806;2023-12-20T11:10:44;94952.34;;;7.57;100.00
20003;BME280;10162;41.600;23.806;2023-12-20T11:13:37;94954.75;;;7.73;100.00
20003;BME280;10162;41.600;23.806;2023-12-20T11:16:06;94934.59;;;7.60;100.00
20003;BME280;10162;41.600;23.806;2023-12-20T11:18:33;94947.84;;;7.65;100.00
20003;BME280;10162;41.600;23.806;2023-12-20T11:21:08;94930.28;;;7.67;100.00
20003;BME280;10162;41.600;23.806;2023-12-20T11:23:37;94938.16;;;7.59;100.00
20003;BME280;10162;41.600;23.806;2023-12-20T11:26:03;94919.97;;;7.74;100.00
20003;BME280;10162;41.600;23.806;2023-12-20T11:28:29;94920.88;;;8.02;100.00
20003;BME280;10162;41.600;23.806;2023-12-20T11:30:58;94875.91;;;7.94;100.00
20003;BME280;10162;41.600;23.806;2023-12-20T11:33:27;94893.63;;;8.19;100.00
20003;BME280;10162;41.600;23.806;2023-12-20T11:35:59;94893.16;;;8.16;100.00
20003;BME280;10162;41.600;23.806;2023-12-20T11:38:25;94896.72;;;8.29;100.00
20003;BME280;10162;41.600;23.806;2023-12-20T11:40:53;94901.06;;;8.22;100.00
20003;BME280;10162;41.600;23.806;2023-12-20T11:43:51;94886.56;;;8.13;100.00
20003;BME280;10162;41.600;23.806;2023-12-20T11:46:18;94893.72;;;8.47;100.00
20003;BME280;10162;41.600;23.806;2023-12-20T11:48:44;94882.31;;;8.48;99.34
20003;BME280;10162;41.600;23.806;2023-12-20T11:51:12;94891.91;;;8.48;100.00
20003;BME280;10162;41.600;23.806;2023-12-20T11:53:39;94876.88;;;8.50;100.00
20003;BME280;10162;41.600;23.806;2023-12-20T11:56:11;94855.66;;;8.10;100.00
20003;BME280;10162;41.600;23.806;2023-12-20T11:58:38;94865.09;;;7.90;100.00
20003;BME280;10162;41.600;23.806;2023-12-20T12:01:04;94866.00;;;8.04;100.00
20003;BME280;10162;41.600;23.806;2023-12-20T12:03:32;94862.72;;;8.31;100.00
20003;BME280;10162;41.600;23.806;2023-12-20T12:05:59;94854.41;;;8.49;100.00
20003;BME280;10162;41.600;23.806;2023-12-20T12:08:26;94839.19;;;8.46;99.92
20003;BME280;10162;41.600;23.806;2023-12-20T12:10:52;94841.78;;;8.46;100.00
20003;BME280;10162;41.600;23.806;2023-12-20T12:13:17;94837.22;;;8.54;97.28
20003;BME280;10162;41.600;23.806;2023-12-20T12:15:44;94828.53;;;8.68;95.67
20003;BME280;10162;41.600;23.806;2023-12-20T12:18:10;94829.97;;;8.78;94.19
20003;BME280;10162;41.600;23.806;2023-12-20T12:20:36;94818.75;;;8.49;94.40
20003;BME280;10162;41.600;23.806;2023-12-20T12:23:03;94808.78;;;8.53;95.11
20003;BME280;10162;41.600;23.806;2023-12-20T12:25:31;94816.97;;;8.50;93.71
20003;BME280;10162;41.600;23.806;2023-12-20T12:28:00;94828.56;;;8.75;92.82
20003;BME280;10162;41.600;23.806;2023-12-20T12:30:27;94819.53;;;8.71;94.49
20003;BME280;10162;41.600;23.806;2023-12-20T12:32:53;94822.13;;;8.43;93.77
20003;BME280;10162;41.600;23.806;2023-12-20T12:35:20;94807.69;;;8.68;94.28
20003;BME280;10162;41.600;23.806;2023-12-20T12:37:46;94810.09;;;8.70;93.62
20003;BME280;10162;41.600;23.806;2023-12-20T12:40:14;94812.38;;;8.80;92.44
20003;BME280;10162;41.600;23.806;2023-12-20T12:42:40;94808.97;;;8.51;92.21
20003;BME280;10162;41.600;23.806;2023-12-20T12:45:07;94792.09;;;8.26;93.57
20003;BME280;10162;41.600;23.806;2023-12-20T12:47:34;94804.03;;;8.35;93.80
20003;BME280;10162;41.600;23.806;2023-12-20T12:50:00;94784.09;;;8.27;94.40
20003;BME280;10162;41.600;23.806;2023-12-20T12:52:26;94799.91;;;8.26;94.49
20003;BME280;10162;41.600;23.806;2023-12-20T12:54:53;94793.13;;;8.04;96.96
20003;BME280;10162;41.600;23.806;2023-12-20T12:57:19;94768.81;;;8.18;96.58
20003;BME280;10162;41.600;23.806;2023-12-20T12:59:45;94786.13;;;8.25;96.62
20003;BME280;10162;41.600;23.806;2023-12-20T13:02:15;94789.31;;;8.27;97.32
20003;BME280;10162;41.600;23.806;2023-12-20T13:04:41;94783.13;;;8.28;95.87
20003;BME280;10162;41.600;23.806;2023-12-20T13:07:08;94787.19;;;8.31;95.50
20003;BME280;10162;41.600;23.806;2023-12-20T13:09:36;94788.53;;;8.55;94.79
20003;BME280;10162;41.600;23.806;2023-12-20T13:12:01;94778.00;;;8.35;94.57
20003;BME280;10162;41.600;23.806;2023-12-20T13:14:31;94785.81;;;8.35;95.37
20003;BME280;10162;41.600;23.806;2023-12-20T13:16:58;94779.47;;;8.23;95.71
20003;BME280;10162;41.600;23.806;2023-12-20T13:19:24;94765.09;;;8.06;96.73
20003;BME280;10162;41.600;23.806;2023-12-20T13:21:49;94777.50;;;8.04;97.04
20003;BME280;10162;41.600;23.806;2023-12-20T13:24:15;94747.72;;;7.85;97.07
20003;BME280;10162;41.600;23.806;2023-12-20T13:26:41;94764.66;;;7.74;98.94
20003;BME280;10162;41.600;23.806;2023-12-20T13:29:07;94788.34;;;7.86;100.00
20003;BME280;10162;41.600;23.806;2023-12-20T13:31:33;94775.91;;;7.81;99.76
20003;BME280;10162;41.600;23.806;2023-12-20T13:33:58;94775.59;;;7.91;99.08
20003;BME280;10162;41.600;23.806;2023-12-20T13:36:24;94780.91;;;8.04;99.20
20003;BME280;10162;41.600;23.806;2023-12-20T13:38:50;94745.59;;;7.95;98.69
20003;BME280;10162;41.600;23.806;2023-12-20T13:41:15;94776.69;;;8.03;99.60
20003;BME280;10162;41.600;23.806;2023-12-20T13:43:42;94770.00;;;7.94;100.00
20003;BME280;10162;41.600;23.806;2023-12-20T13:46:08;94748.25;;;7.80;100.00
20003;BME280;10162;41.600;23.806;2023-12-20T13:48:34;94769.84;;;7.74;100.00
20003;BME280;10162;41.600;23.806;2023-12-20T13:51:00;94765.19;;;7.70;100.00
20003;BME280;10162;41.600;23.806;2023-12-20T13:53:26;94759.88;;;7.57;100.00
20003;BME280;10162;41.600;23.806;2023-12-20T13:56:08;94758.75;;;7.66;100.00
20003;BME280;10162;41.600;23.806;2023-12-20T13:58:33;94752.88;;;7.57;100.00
20003;BME280;10162;41.600;23.806;2023-12-20T14:00:59;94742.44;;;7.36;100.00
20003;BME280;10162;41.600;23.806;2023-12-20T14:03:26;94737.16;;;7.29;100.00
20003;BME280;10162;41.600;23.806;2023-12-20T14:05:54;94742.50;;;7.42;100.00
20003;BME280;10162;41.600;23.806;2023-12-20T14:08:45;94773.75;;;7.28;100.00
20003;BME280;10162;41.600;23.806;2023-12-20T14:11:11;94733.31;;;7.25;100.00
20003;BME280;10162;41.600;23.806;2023-12-20T14:13:37;94730.72;;;7.25;100.00
20003;BME280;10162;41.600;23.806;2023-12-20T14:16:23;94761.03;;;7.18;100.00
20003;BME280;10162;41.600;23.806;2023-12-20T14:18:49;94746.53;;;7.09;100.00
20003;BME280;10162;41.600;23.806;2023-12-20T14:21:17;94742.09;;;7.24;100.00
20003;BME280;10162;41.600;23.806;2023-12-20T14:23:43;94751.47;;;6.89;100.00
20003;BME280;10162;41.600;23.806;2023-12-20T14:29:13;94751.59;;;6.37;100.00
20003;BME280;10162;41.600;23.806;2023-12-20T14:31:39;94741.03;;;6.24;100.00
20003;BME280;10162;41.600;23.806;2023-12-20T14:34:06;94723.34;;;5.90;100.00
20003;BME280;10162;41.600;23.806;2023-12-20T14:36:35;94730.03;;;5.62;100.00
20003;BME280;10162;41.600;23.806;2023-12-20T14:39:01;94736.56;;;5.58;100.00
20003;BME280;10162;41.600;23.806;2023-12-20T14:41:29;94738.09;;;5.67;100.00
20003;BME280;10162;41.600;23.806;2023-12-20T14:43:58;94744.09;;;5.45;100.00
20003;BME280;10162;41.600;23.806;2023-12-20T14:46:33;94708.78;;;5.21;100.00
20003;BME280;10162;41.600;23.806;2023-12-20T14:49:02;94709.56;;;4.98;100.00
20003;BME280;10162;41.600;23.806;2023-12-20T14:51:28;94743.94;;;5.15;100.00
20003;BME280;10162;41.600;23.806;2023-12-20T14:53:57;94745.81;;;4.98;100.00